Ashton, Nebraska
Current Conditions -  °F | °C
As of 1:53 AM on Thursday 29 Jan 2015 (Local Time) from KODX Reporting Station
Overcast Overcast  
Wind Chill: -4°   Ceiling: 1800
Heat Index:   Visibility: 10mi
Dew Point: -2°   Wind: 25mph
Humidity: 76%   Direction: 340°NNW
Pressure: 30.21"   Gusts: 33mph
Location:  41.25°N, 98.79°W
Report Text: KODX 290753Z AUTO 34022G29KT 10SM OVC018 02/M02 A3021 RMK AO2 PK WND 34036/0731 SLP235 T00221017 $
Loading
Personal Weather Stations






























Interactive Weather Map New forecast layout! Learn more

10-Day Weather Forecast

Advertisements
Track Severe Weather on mobile